createdAt,value
2023-04-11T00:03:30.525Z,1007.949
2023-04-11T00:08:32.319Z,1007.916
2023-04-11T00:13:30.253Z,1008.007
2023-04-11T00:18:32.508Z,1007.984
2023-04-11T00:23:31.490Z,1007.898
2023-04-11T00:28:33.160Z,1007.984
2023-04-11T00:33:30.135Z,1007.93
2023-04-11T00:38:31.355Z,1008.045
2023-04-11T00:43:29.972Z,1008.065
2023-04-11T00:48:36.117Z,1008.063
2023-04-11T00:53:35.323Z,1008.101
2023-04-11T00:58:30.077Z,1008.092
2023-04-11T01:03:31.613Z,1008.151
2023-04-11T01:08:31.629Z,1008.12
2023-04-11T01:13:30.090Z,1008.216
2023-04-11T01:18:30.126Z,1008.105
2023-04-11T01:23:30.119Z,1008.13
2023-04-11T01:28:29.997Z,1008.159
2023-04-11T01:33:30.137Z,1008.308
2023-04-11T01:38:30.111Z,1008.315
2023-04-11T01:43:29.903Z,1008.299
2023-04-11T01:48:33.296Z,1008.315
2023-04-11T01:53:30.027Z,1008.325
2023-04-11T01:58:29.908Z,1008.378
2023-04-11T02:03:33.556Z,1008.409
2023-04-11T02:08:29.887Z,1008.431
2023-04-11T02:13:30.286Z,1008.56
2023-04-11T02:18:32.252Z,1008.568
2023-04-11T02:23:30.322Z,1008.671
2023-04-11T02:28:29.824Z,1008.708
2023-04-11T02:33:29.786Z,1008.762
2023-04-11T02:38:30.166Z,1008.791
2023-04-11T02:43:30.046Z,1008.76
2023-04-11T02:48:29.813Z,1008.878
2023-04-11T02:53:30.596Z,1008.818
2023-04-11T02:58:31.660Z,1008.811
2023-04-11T03:03:33.614Z,1008.87
2023-04-11T03:08:29.766Z,1008.887
2023-04-11T03:13:31.208Z,1008.891
2023-04-11T03:18:30.186Z,1008.955
2023-04-11T03:23:32.636Z,1008.939
2023-04-11T03:28:30.517Z,1008.982
2023-04-11T03:33:30.115Z,1008.949
2023-04-11T03:38:30.134Z,1008.949
2023-04-11T03:43:31.564Z,1009.056
2023-04-11T03:48:31.174Z,1009.088
2023-04-11T03:53:37.897Z,1009.112
2023-04-11T03:58:37.220Z,1009.148
2023-04-11T04:03:30.172Z,1009.258
2023-04-11T04:08:37.555Z,1009.264
2023-04-11T04:13:36.229Z,1009.488
2023-04-11T04:18:30.653Z,1009.465
2023-04-11T04:23:30.057Z,1009.506
2023-04-11T04:28:29.873Z,1009.596
2023-04-11T04:33:36.156Z,1009.636
2023-04-11T04:38:31.150Z,1009.735
2023-04-11T04:43:32.592Z,1009.859
2023-04-11T04:48:31.344Z,1009.896
2023-04-11T04:53:30.101Z,1010.017
2023-04-11T04:58:30.022Z,1009.942
2023-04-11T05:03:35.114Z,1010.052
2023-04-11T05:08:36.428Z,1010.1
2023-04-11T05:13:29.766Z,1010.113
2023-04-11T05:18:35.396Z,1010.164
2023-04-11T05:23:30.287Z,1010.142
2023-04-11T05:28:29.816Z,1010.218
2023-04-11T05:33:32.054Z,1010.249
2023-04-11T05:38:36.065Z,1010.446
2023-04-11T05:43:38.137Z,1010.464
2023-04-11T05:48:30.058Z,1010.571
2023-04-11T05:53:32.787Z,1010.655
2023-04-11T05:58:34.731Z,1010.749
2023-04-11T06:03:32.456Z,1010.8
2023-04-11T06:08:34.697Z,1010.787
2023-04-11T06:13:31.937Z,1010.825
2023-04-11T06:18:42.853Z,1010.939
2023-04-11T06:23:33.962Z,1010.892
2023-04-11T06:28:32.767Z,1010.897
2023-04-11T06:33:29.980Z,1010.832
2023-04-11T06:38:30.012Z,1010.969
2023-04-11T06:43:29.905Z,1011.124
2023-04-11T06:48:29.973Z,1011.131
2023-04-11T06:53:30.091Z,1011.142
2023-04-11T06:58:30.258Z,1011.164
2023-04-11T07:03:30.994Z,1011.173
2023-04-11T07:08:31.360Z,1011.287
2023-04-11T07:13:29.903Z,1011.285
2023-04-11T07:18:31.101Z,1011.356
2023-04-11T07:23:32.909Z,1011.425
2023-04-11T07:28:31.215Z,1011.56
2023-04-11T07:33:29.897Z,1011.573
2023-04-11T07:38:33.370Z,1011.641
2023-04-11T07:43:31.253Z,1011.703
2023-04-11T07:48:30.935Z,1011.767
2023-04-11T07:53:31.147Z,1011.754
2023-04-11T07:58:35.605Z,1012.003
2023-04-11T08:03:33.219Z,1011.985
2023-04-11T08:08:43.486Z,1012.03
2023-04-11T08:13:35.995Z,1012.241
2023-04-11T08:18:33.632Z,1012.249
2023-04-11T08:23:30.202Z,1012.1
2023-04-11T08:28:33.864Z,1012.235
2023-04-11T08:33:41.238Z,1012.348
2023-04-11T08:38:37.786Z,1012.45
2023-04-11T08:43:41.039Z,1012.346
2023-04-11T08:48:38.809Z,1012.388
2023-04-11T08:53:47.892Z,1012.438
2023-04-11T08:58:30.818Z,1012.502
2023-04-11T09:03:32.811Z,1012.329
2023-04-11T09:08:40.471Z,1012.465
2023-04-11T09:13:34.426Z,1012.616
2023-04-11T09:18:41.567Z,1012.554
2023-04-11T09:23:33.602Z,1012.564
2023-04-11T09:28:29.846Z,1012.582
2023-04-11T09:33:32.252Z,1012.686
2023-04-11T09:38:41.701Z,1012.532
2023-04-11T09:43:36.001Z,1012.588
2023-04-11T09:48:45.440Z,1012.62
2023-04-11T09:53:37.209Z,1012.652
2023-04-11T09:58:31.849Z,1012.69
2023-04-11T10:03:32.120Z,1012.543
2023-04-11T10:08:35.909Z,1012.824
2023-04-11T10:13:54.936Z,1012.785
2023-04-11T10:18:30.958Z,1012.811
2023-04-11T10:23:30.056Z,1012.95
2023-04-11T10:28:42.704Z,1012.92
2023-04-11T10:33:29.986Z,1012.824
2023-04-11T10:38:41.193Z,1012.941
2023-04-11T10:43:30.064Z,1012.984
2023-04-11T10:48:32.477Z,1013.079
2023-04-11T10:53:44.304Z,1013.049
2023-04-11T10:58:38.486Z,1013.077
2023-04-11T11:03:32.489Z,1013.046
2023-04-11T11:08:35.693Z,1013.087
2023-04-11T11:13:39.826Z,1013.101
2023-04-11T11:18:31.135Z,1013.151
2023-04-11T11:23:32.374Z,1013.125
2023-04-11T11:28:35.225Z,1013.084
2023-04-11T11:33:30.293Z,1013.171
2023-04-11T11:38:30.608Z,1013.181
2023-04-11T11:43:30.645Z,1013.26
2023-04-11T11:48:31.236Z,1013.354
2023-04-11T11:53:30.189Z,1013.429
2023-04-11T11:58:35.825Z,1013.356
2023-04-11T12:03:34.434Z,1013.413
2023-04-11T12:08:34.148Z,1013.478
2023-04-11T12:13:31.078Z,1013.617
2023-04-11T12:18:34.662Z,1013.617
2023-04-11T12:23:30.118Z,1013.672
2023-04-11T12:28:29.886Z,1013.709
2023-04-11T12:33:29.942Z,1013.849
2023-04-11T12:38:36.843Z,1013.712
2023-04-11T12:43:29.859Z,1013.762
2023-04-11T12:48:44.049Z,1013.842
2023-04-11T12:53:29.857Z,1013.758
2023-04-11T12:58:31.995Z,1013.814
2023-04-11T13:03:30.044Z,1013.806
2023-04-11T13:08:31.755Z,1013.816
2023-04-11T13:13:31.078Z,1013.806
2023-04-11T13:18:31.850Z,1013.734
2023-04-11T13:23:32.432Z,1013.864
2023-04-11T13:28:40.919Z,1013.802
2023-04-11T13:33:34.056Z,1013.747
2023-04-11T13:38:32.473Z,1013.836
2023-04-11T13:43:29.788Z,1013.847
2023-04-11T13:48:32.370Z,1013.661
2023-04-11T13:53:30.824Z,1013.685
2023-04-11T13:58:33.328Z,1013.818
2023-04-11T14:03:33.677Z,1013.658
2023-04-11T14:08:34.232Z,1013.589
2023-04-11T14:13:32.385Z,1013.552
2023-04-11T14:18:29.741Z,1013.458
2023-04-11T14:23:29.844Z,1013.442
2023-04-11T14:28:32.704Z,1013.438
2023-04-11T14:33:32.441Z,1013.451
2023-04-11T14:38:31.441Z,1013.319
2023-04-11T14:43:29.696Z,1013.223
2023-04-11T14:48:32.306Z,1013.223
2023-04-11T14:53:29.927Z,1013.217
2023-04-11T14:58:29.848Z,1013.186
2023-04-11T15:03:31.443Z,1013.083
2023-04-11T15:08:29.881Z,1013.025
2023-04-11T15:13:31.297Z,1012.981
2023-04-11T15:18:30.904Z,1012.879
2023-04-11T15:23:33.666Z,1012.887
2023-04-11T15:28:36.466Z,1012.872
2023-04-11T15:33:31.302Z,1012.84
2023-04-11T15:38:30.765Z,1012.855
2023-04-11T15:43:32.989Z,1012.815
2023-04-11T15:48:29.877Z,1012.708
2023-04-11T15:53:29.920Z,1012.714
2023-04-11T15:58:31.882Z,1012.644
2023-04-11T16:03:36.008Z,1012.569
2023-04-11T16:08:47.714Z,1012.511
2023-04-11T16:13:32.605Z,1012.463
2023-04-11T16:18:31.833Z,1012.302
2023-04-11T16:23:30.960Z,1012.247
2023-04-11T16:28:31.032Z,1012.157
2023-04-11T16:33:30.153Z,1012.056
2023-04-11T16:38:31.814Z,1012.067
2023-04-11T16:43:30.393Z,1012.105
2023-04-11T16:48:30.702Z,1012.001
2023-04-11T16:53:31.712Z,1011.943
2023-04-11T16:58:29.950Z,1011.827
2023-04-11T17:03:30.067Z,1011.752
2023-04-11T17:08:30.748Z,1011.651
2023-04-11T17:13:32.645Z,1011.754
2023-04-11T17:18:29.599Z,1011.687
2023-04-11T17:23:42.596Z,1011.65
2023-04-11T17:28:32.532Z,1011.618
2023-04-11T17:33:32.493Z,1011.571
2023-04-11T17:38:29.826Z,1011.513
2023-04-11T17:43:30.288Z,1011.447
2023-04-11T17:48:29.908Z,1011.372
2023-04-11T17:53:32.763Z,1011.339
2023-04-11T17:58:32.015Z,1011.372
2023-04-11T18:03:34.977Z,1011.365
2023-04-11T18:08:49.847Z,1011.341
2023-04-11T18:13:32.357Z,1011.211
2023-04-11T18:18:30.044Z,1011.117
2023-04-11T18:23:31.271Z,1011.007
2023-04-11T18:28:30.652Z,1010.925
2023-04-11T18:33:29.788Z,1010.927
2023-04-11T18:38:30.666Z,1010.906
2023-04-11T18:43:29.757Z,1010.776
2023-04-11T18:48:34.474Z,1010.759
2023-04-11T18:53:30.964Z,1010.624
2023-04-11T18:58:34.173Z,1010.577
2023-04-11T19:03:30.400Z,1010.55
2023-04-11T19:08:30.128Z,1010.512
2023-04-11T19:13:29.669Z,1010.514
2023-04-11T19:18:30.074Z,1010.397
2023-04-11T19:23:29.697Z,1010.366
2023-04-11T19:28:29.936Z,1010.407
2023-04-11T19:33:31.186Z,1010.324
2023-04-11T19:38:34.754Z,1010.259
2023-04-11T19:43:29.796Z,1010.127
2023-04-11T19:48:35.125Z,1009.992
2023-04-11T19:53:35.246Z,1009.833
2023-04-11T19:58:30.128Z,1009.724
2023-04-11T20:03:30.059Z,1009.621
2023-04-11T20:08:36.629Z,1009.492
2023-04-11T20:13:29.627Z,1009.32
2023-04-11T20:18:30.174Z,1009.223
2023-04-11T20:23:31.323Z,1009.159
2023-04-11T20:28:30.473Z,1008.956
2023-04-11T20:33:30.961Z,1008.859
2023-04-11T20:38:31.253Z,1008.691
2023-04-11T20:43:31.022Z,1008.683
2023-04-11T20:48:34.383Z,1008.611
2023-04-11T20:53:29.591Z,1008.435
2023-04-11T20:58:32.636Z,1008.277
2023-04-11T21:03:31.571Z,1008.186
2023-04-11T21:08:30.208Z,1008.039
2023-04-11T21:13:33.655Z,1008.016
2023-04-11T21:18:31.627Z,1007.973
2023-04-11T21:23:31.484Z,1007.936
2023-04-11T21:28:29.832Z,1007.79
2023-04-11T21:33:29.764Z,1007.71
2023-04-11T21:38:32.962Z,1007.603
2023-04-11T21:43:29.773Z,1007.573
2023-04-11T21:48:29.833Z,1007.55
2023-04-11T21:53:30.465Z,1007.437
2023-04-11T21:58:30.103Z,1007.433
2023-04-11T22:03:29.917Z,1007.329
2023-04-11T22:08:29.533Z,1007.189
2023-04-11T22:13:33.797Z,1007.093
2023-04-11T22:18:35.995Z,1006.975
2023-04-11T22:23:33.112Z,1006.916
2023-04-11T22:28:29.809Z,1006.925
2023-04-11T22:33:29.860Z,1006.889
2023-04-11T22:38:34.487Z,1006.75
2023-04-11T22:43:30.559Z,1006.646
2023-04-11T22:48:29.807Z,1006.519
2023-04-11T22:53:32.394Z,1006.41
2023-04-11T22:58:29.799Z,1006.347
2023-04-11T23:03:29.965Z,1006.212
2023-04-11T23:08:29.915Z,1006.1
2023-04-11T23:13:29.879Z,1006.04
2023-04-11T23:18:34.696Z,1005.893
2023-04-11T23:23:32.766Z,1005.819
2023-04-11T23:28:29.684Z,1005.606
2023-04-11T23:33:31.229Z,1005.545
2023-04-11T23:38:29.815Z,1005.311
2023-04-11T23:43:30.362Z,1005.17
2023-04-11T23:48:29.850Z,1005.105
2023-04-11T23:53:29.544Z,1004.966
2023-04-11T23:58:29.734Z,1004.82
